Latest Weather Observations for Ferny Creek

IDV60901

Issued at 3:55 pm EST Saturday 20 September 2014 (issued every 10 minutes, with the page automatically refreshed every 10 minutes)

About weather observations | Map of Melbourne area stations | Latest observations for Melbourne area | Other Formats
Station Details ID: 086266 Name: FERNY CREEK Lat: -37.87 Lon: 145.35 Height: 512.9 m
Data from the previous 72 hours. | See also: Recent months at Ferny Creek
Date/Time
EST
Tmp

°C
App
Tmp
°C
Dew
Point
°C
Rel
Hum
%
Delta-T

°C
Wind Press
QNH
hPa
Press
MSL
hPa
Rain
since
9 am
mm
Dir
 
Spd
km/h
Gust
km/h
Spd
kts
Gust
kts
20/03:30pm 9.8 8.3 6.7 81 1.5 S 4 13 2 7 1026.8 1027.2 0.4
20/03:00pm 9.1 8.0 6.9 86 1.1 WSW 2 6 1 3 1026.7 1027.1 0.4
20/02:30pm 9.4 7.6 7.0 85 1.2 S 6 9 3 5 1026.7 1027.1 0.4
20/02:00pm 9.7 8.2 6.8 82 1.4 SSE 4 7 2 4 1026.6 1027.0 0.4
20/01:30pm 10.1 8.2 6.6 79 1.7 SE 6 11 3 6 1026.6 1027.0 0.4
20/01:00pm 9.6 7.8 7.0 84 1.3 S 6 13 3 7 1026.7 1027.1 0.4
20/12:30pm 10.4 9.3 6.9 79 1.7 SW 2 7 1 4 1026.8 1027.2 0.4
20/12:00pm 9.3 7.5 7.3 87 1.0 SE 6 13 3 7 1027.3 1027.7 0.4
20/11:30am 9.9 8.4 6.8 81 1.5 S 4 9 2 5 1027.0 1027.5 0.4
20/11:00am 9.5 8.1 7.1 85 1.2 SE 4 7 2 4 1027.2 1027.6 0.4
20/10:30am 7.9 6.4 6.8 93 0.5 SE 4 11 2 6 1027.5 1027.9 0.4
20/10:00am 8.1 6.3 7.2 94 0.4 ESE 6 9 3 5 1027.4 1027.8 0.4
20/09:30am 7.3 5.2 6.6 95 0.3 S 7 15 4 8 1027.5 1027.9 0.4
20/09:00am 7.6 5.7 6.7 94 0.4 ESE 6 15 3 8 1027.3 1027.7 0.2
20/08:30am 7.2 5.3 6.6 96 0.3 SSE 6 11 3 6 1026.9 1027.4 0.2
20/08:00am 6.9 4.9 6.2 95 0.3 S 6 11 3 6 1026.6 1027.0 0.2
20/07:30am 6.8 5.1 6.1 95 0.3 S 4 9 2 5 1026.3 1026.7 0.2
20/07:00am 6.5 4.7 5.6 94 0.4 SSW 4 9 2 5 1026.1 1026.5 0.2
20/06:30am 6.2 5.2 5.5 95 0.3 CALM 0 6 0 3 1025.6 1026.0 0.2
20/06:00am 6.1 4.7 5.4 95 0.3 WSW 2 6 1 3 1025.4 1025.8 0.2
20/05:30am 5.4 3.7 4.2 92 0.5 W 2 4 1 2 1024.9 1025.3 0.2
20/05:00am 6.3 4.9 5.4 94 0.4 ESE 2 6 1 3 1024.6 1025.0 0.2
20/04:30am 6.4 5.0 5.5 94 0.4 NNW 2 6 1 3 1024.3 1024.7 0.2
20/04:00am 6.6 5.2 5.6 93 0.5 WSW 2 6 1 3 1024.3 1024.7 0.2
20/03:30am 6.6 4.8 5.2 91 0.6 S 4 6 2 3 1024.2 1024.6 0.2
20/03:00am 6.4 5.3 4.9 90 0.7 CALM 0 4 0 2 1024.3 1024.7 0.2
20/02:30am 6.5 5.0 5.0 90 0.7 ESE 2 7 1 4 1024.3 1024.7 0.2
20/02:00am 6.5 5.0 5.0 90 0.7 SE 2 4 1 2 1024.5 1024.9 0.2
20/01:30am 6.7 5.2 5.0 89 0.8 SW 2 6 1 3 1024.7 1025.1 0.2
20/01:00am 6.5 5.0 5.0 90 0.7 SSE 2 7 1 4 1024.7 1025.1 0.2
20/12:30am 6.0 4.8 4.5 90 0.7 CALM 0 4 0 2 1024.6 1025.0 0.2
20/12:00am 6.0 4.3 3.8 86 1.0 S 2 6 1 3 1024.5 1024.9 0.2
 
Date/Time
EST
Tmp

°C
App
Tmp
°C
Dew
Point
°C
Rel
Hum
%
Delta-T

°C
Wind Press
QNH
hPa
Press
MSL
hPa
Rain
since
9 am
mm
Dir
 
Spd
km/h
Gust
km/h
Spd
kts
Gust
kts
19/11:30pm 6.8 4.7 4.1 83 1.2 SW 4 7 2 4 1024.6 1025.0 0.2
19/11:00pm 7.1 5.0 4.1 81 1.3 SW 4 11 2 6 1024.9 1025.3 0.2
19/10:30pm 7.0 5.7 4.1 82 1.3 CALM 0 4 0 2 1024.9 1025.3 0.2
19/10:00pm 7.3 5.8 4.8 84 1.1 S 2 6 1 3 1025.3 1025.7 0.2
19/09:30pm 7.3 5.4 4.8 84 1.1 SW 4 9 2 5 1025.3 1025.7 0.2
19/09:00pm 7.5 5.6 4.8 83 1.2 SW 4 7 2 4 1025.2 1025.5 0.2
19/08:30pm 7.5 5.6 4.8 83 1.2 S 4 9 2 5 1024.9 1025.3 0.2
19/08:00pm 7.6 6.1 5.1 84 1.1 SSW 2 7 1 4 1024.8 1025.2 0.2
19/07:30pm 7.7 5.5 5.5 86 1.0 WSW 6 15 3 8 1024.5 1024.9 0.2
19/07:00pm 7.8 6.1 5.8 87 0.9 WSW 4 11 2 6 1024.3 1024.7 0.2
19/06:30pm 8.0 6.2 5.5 84 1.2 WSW 4 13 2 7 1024.1 1024.5 0.2
19/06:00pm 8.3 6.6 5.8 84 1.2 WSW 4 13 2 7 1024.0 1024.4 0.2
19/05:30pm 8.7 6.9 5.3 79 1.6 WSW 4 11 2 6 1023.8 1024.2 0.2
19/05:00pm 8.8 6.5 4.6 75 1.9 WSW 6 15 3 8 1023.5 1023.8 0.2
19/04:30pm 9.5 7.0 4.9 73 2.1 WSW 7 15 4 8 1023.4 1023.7 0.2
19/04:00pm 10.8 8.2 4.3 64 3.0 WSW 7 19 4 10 1023.2 1023.5 0.2
19/03:30pm 10.8 8.4 5.3 69 2.6 SW 7 19 4 10 1023.2 1023.5 0.2
19/03:00pm 10.9 8.6 5.7 70 2.5 WSW 7 15 4 8 1023.2 1023.5 0.2
19/02:30pm 9.9 7.0 4.9 71 2.3 WSW 9 19 5 10 1023.4 1023.7 0.2
19/02:00pm 9.4 7.9 5.2 75 1.9 N 2 6 1 3 1023.4 1023.7 0.2
19/01:30pm 8.8 6.7 6.6 86 1.1 W 7 26 4 14 1023.7 1024.1 0.2
19/01:00pm 8.7 6.4 5.6 81 1.4 W 7 17 4 9 1023.8 1024.2 0.2
19/12:30pm 9.9 8.0 6.8 81 1.5 W 6 13 3 7 1023.9 1024.3 0.2
19/12:00pm 9.1 7.5 6.2 82 1.4 WSW 4 9 2 5 1024.1 1024.5 0.2
19/11:30am 9.2 7.1 5.9 80 1.6 W 6 13 3 7 1024.0 1024.4 0.2
19/11:00am 8.1 5.7 5.4 83 1.2 WSW 7 17 4 9 1024.1 1024.5 0.2
19/10:30am 8.2 6.8 7.1 93 0.5 W 4 7 2 4 1024.2 1024.6 0.2
19/10:00am 7.3 5.2 5.8 90 0.7 WSW 6 13 3 7 1024.2 1024.6 0.0
19/09:30am 7.2 6.1 6.8 97 0.2 W 2 6 1 3 1024.3 1024.7 0.0
19/09:00am 6.0 4.2 5.6 97 0.2 WNW 4 9 2 5 1024.2 1024.6 2.0
19/08:30am 5.8 4.4 5.4 97 0.2 W 2 6 1 3 1024.2 1024.6 2.0
19/08:00am 5.5 3.6 5.1 97 0.2 WNW 4 7 2 4 1024.1 1024.5 2.0
19/07:30am 5.8 4.0 5.4 97 0.2 W 4 6 2 3 1023.7 1024.1 2.0
19/07:00am 5.8 4.4 5.4 97 0.2 W 2 4 1 2 1023.5 1023.8 1.8
19/06:30am 5.8 4.0 5.4 97 0.2 WNW 4 7 2 4 1023.3 1023.6 1.8
19/06:00am 5.7 3.9 5.3 97 0.2 W 4 9 2 5 1023.1 1023.4 1.8
19/05:30am 5.5 3.6 4.9 96 0.3 W 4 7 2 4 1022.8 1023.2 1.6
19/05:00am 5.5 4.0 4.9 96 0.3 W 2 7 1 4 1022.7 1023.1 1.6
19/04:30am 5.5 3.6 4.9 96 0.3 W 4 6 2 3 1022.7 1023.1 1.4
19/04:00am 5.5 3.6 4.9 96 0.3 W 4 9 2 5 1022.7 1023.1 1.0
19/03:30am 5.5 3.6 4.8 95 0.3 WSW 4 9 2 5 1022.6 1023.0 0.8
19/03:00am 5.2 3.2 4.5 95 0.3 W 4 6 2 3 1022.7 1023.1 0.6
19/02:30am 4.8 3.1 3.8 93 0.4 WNW 2 4 1 2 1022.7 1023.1 0.6
19/02:00am 5.5 3.5 4.5 93 0.4 W 4 9 2 5 1023.2 1023.5 0.6
19/01:30am 5.0 3.1 2.9 86 0.9 W 2 7 1 4 1023.4 1023.7 0.6
19/01:00am 4.9 3.4 3.2 89 0.7 CALM 0 0 0 0 1023.5 1023.8 0.6
19/12:30am 5.0 3.5 3.2 88 0.8 CALM 0 0 0 0 1023.8 1024.2 0.6
19/12:00am 5.4 3.6 3.3 86 0.9 WSW 2 7 1 4 1023.8 1024.2 0.6
 
Date/Time
EST
Tmp

°C
App
Tmp
°C
Dew
Point
°C
Rel
Hum
%
Delta-T

°C
Wind Press
QNH
hPa
Press
MSL
hPa
Rain
since
9 am
mm
Dir
 
Spd
km/h
Gust
km/h
Spd
kts
Gust
kts
18/11:30pm 5.4 3.5 3.1 85 1.0 WSW 2 6 1 3 1023.9 1024.3 0.6
18/11:00pm 6.2 4.0 3.4 82 1.2 WSW 4 9 2 5 1024.1 1024.5 0.6
18/10:30pm 6.2 4.4 3.4 82 1.2 WSW 2 6 1 3 1024.1 1024.5 0.6
18/10:00pm 6.1 4.2 2.9 80 1.4 SW 2 6 1 3 1024.1 1024.5 0.6
18/09:30pm 5.7 3.7 2.5 80 1.4 SW 2 4 1 2 1024.1 1024.5 0.6
18/09:00pm 5.7 3.3 2.0 77 1.5 WSW 4 9 2 5 1024.0 1024.4 0.6
18/08:30pm 6.2 4.2 2.5 77 1.6 SW 2 7 1 4 1023.8 1024.2 0.6
18/08:00pm 6.1 4.1 2.2 76 1.6 SW 2 7 1 4 1023.8 1024.2 0.6
18/07:30pm 6.3 3.9 2.2 75 1.7 SSW 4 9 2 5 1023.7 1024.1 0.6
18/07:00pm 6.3 3.9 2.4 76 1.6 W 4 9 2 5 1023.4 1023.7 0.6
18/06:30pm 6.6 3.8 2.3 74 1.8 WSW 6 17 3 9 1023.1 1023.4 0.6
18/06:00pm 7.0 4.5 3.6 79 1.5 WSW 6 13 3 7 1022.9 1023.3 0.6
18/05:30pm 7.4 4.8 4.0 79 1.5 WSW 7 19 4 10 1022.6 1023.0 0.6
18/05:00pm 7.9 5.5 4.5 79 1.5 WSW 6 19 3 10 1022.3 1022.7 0.6
18/04:30pm 7.4 5.1 4.7 83 1.2 WSW 6 13 3 7 1022.1 1022.5 0.6
18/04:00pm 7.9 4.9 3.9 76 1.8 WSW 9 24 5 13 1021.9 1022.3 0.6
18/03:30pm 9.4 6.4 4.0 69 2.4 WSW 9 22 5 12 1021.6 1021.9 0.6
18/03:00pm 9.8 7.0 5.2 73 2.1 WSW 9 24 5 13 1021.7 1022.0 0.6
18/02:30pm 9.3 6.2 3.7 68 2.5 SW 9 26 5 14 1021.6 1021.9 0.6
18/02:00pm 8.1 5.9 5.4 83 1.2 SSW 6 15 3 8 1021.6 1021.9 0.6
18/01:30pm 8.7 6.2 4.9 77 1.7 WSW 7 13 4 7 1021.5 1021.8 0.6
18/01:00pm 7.9 4.6 4.8 81 1.4 SW 11 28 6 15 1021.7 1022.0 0.6
18/12:30pm 8.8 6.3 6.6 86 1.1 WSW 9 19 5 10 1021.6 1021.9 0.6
18/12:00pm 7.3 5.1 5.3 87 0.9 W 6 13 3 7 1021.8 1022.1 0.6
18/11:30am 7.1 4.7 5.3 88 0.8 W 7 17 4 9 1021.7 1022.0 0.6
18/11:00am 7.0 4.7 5.9 93 0.5 WSW 7 22 4 12 1021.8 1022.1 0.6
18/10:30am 6.2 4.0 5.5 95 0.3 WSW 6 9 3 5 1021.8 1022.1 0.6
18/10:00am 5.9 3.4 5.0 94 0.4 W 7 15 4 8 1021.7 1022.0 0.4
18/09:30am 5.8 3.6 5.1 95 0.3 W 6 19 3 10 1021.6 1021.9 0.0
18/09:00am 5.6 3.4 5.2 97 0.2 W 6 13 3 7 1021.6 1021.9 8.4
18/08:30am 5.8 4.0 5.5 98 0.1 W 4 13 2 7 1021.2 1021.5 8.2
18/08:00am 5.1 2.8 4.7 97 0.2 W 6 11 3 6 1021.1 1021.4 8.0
18/07:30am 4.6 2.6 4.2 97 0.2 W 4 9 2 5 1020.6 1021.0 8.0
18/07:00am 4.8 3.2 4.4 97 0.2 WNW 2 13 1 7 1020.2 1020.6 6.6
18/06:30am 4.7 3.1 4.3 97 0.2 W 2 6 1 3 1019.9 1020.2 6.6
18/06:00am 4.7 2.7 4.3 97 0.2 W 4 9 2 5 1019.6 1019.9 6.6
18/05:30am 4.7 2.7 4.3 97 0.2 W 4 9 2 5 1019.3 1019.6 6.6
18/05:00am 4.6 2.6 4.2 97 0.2 W 4 9 2 5 1019.0 1019.3 6.4
18/04:30am 4.6 2.6 4.2 97 0.2 W 4 11 2 6 1018.6 1019.0 6.4
18/04:00am 4.5 2.1 4.1 97 0.2 W 6 13 3 7 1018.4 1018.7 6.4
18/03:30am 4.5 2.4 4.1 97 0.2 W 4 7 2 4 1018.2 1018.5 6.2
18/03:00am 4.3 1.8 3.9 97 0.2 W 6 13 3 7 1018.2 1018.5 6.0
18/02:30am 4.3 2.2 3.7 96 0.3 W 4 7 2 4 1018.0 1018.3 4.8
18/02:00am 4.1 1.9 3.5 96 0.3 W 4 7 2 4 1018.2 1018.5 4.4
18/01:30am 4.1 1.9 3.4 95 0.3 W 4 7 2 4 1018.3 1018.6 4.0
18/01:00am 4.2 2.0 3.5 95 0.3 W 4 7 2 4 1018.4 1018.7 4.0
18/12:30am 4.4 2.3 3.7 95 0.3 WNW 4 9 2 5 1018.4 1018.7 4.0
18/12:00am 4.4 2.2 3.5 94 0.4 W 4 6 2 3 1018.4 1018.7 4.0
 
Date/Time
EST
Tmp

°C
App
Tmp
°C
Dew
Point
°C
Rel
Hum
%
Delta-T

°C
Wind Press
QNH
hPa
Press
MSL
hPa
Rain
since
9 am
mm
Dir
 
Spd
km/h
Gust
km/h
Spd
kts
Gust
kts
17/11:30pm 4.4 2.2 3.4 93 0.4 W 4 7 2 4 1018.2 1018.5 3.8
17/11:00pm 4.4 2.2 3.4 93 0.4 W 4 7 2 4 1018.2 1018.5 3.8
17/10:30pm 4.5 2.3 3.5 93 0.4 W 4 7 2 4 1018.2 1018.5 3.8
17/10:00pm 4.6 2.4 3.4 92 0.5 W 4 9 2 5 1018.1 1018.4 3.8
17/09:30pm 4.7 2.2 3.5 92 0.5 W 6 9 3 5 1017.9 1018.2 3.8
17/09:00pm 4.6 2.5 3.7 94 0.4 W 4 9 2 5 1017.8 1018.1 3.8
17/08:30pm 4.6 2.8 3.6 93 0.4 WSW 2 4 1 2 1017.6 1017.9 3.8
17/08:00pm 4.3 2.1 3.1 92 0.5 W 4 7 2 4 1017.4 1017.7 3.8
17/07:30pm 5.0 2.3 3.8 92 0.5 W 7 22 4 12 1017.2 1017.5 3.8
17/07:00pm 5.3 2.6 3.5 88 0.8 W 7 19 4 10 1016.9 1017.1 3.4
17/06:30pm 5.5 2.3 3.3 86 0.9 WSW 9 26 5 14 1016.5 1016.8 3.4
17/06:00pm 5.4 2.9 3.6 88 0.8 WSW 6 19 3 10 1016.2 1016.5 3.4
17/05:30pm 5.9 3.1 3.4 84 1.1 W 7 22 4 12 1015.9 1016.2 3.4
17/05:00pm 5.8 3.2 4.3 90 0.7 W 7 17 4 9 1015.4 1015.7 3.4
17/04:30pm 6.0 3.6 5.3 95 0.3 W 7 20 4 11 1014.9 1015.1 3.2
17/04:00pm 5.5 2.6 4.8 95 0.3 W 9 20 5 11 1014.6 1014.9 3.0

Latest Capital City Observations: Canberra | Sydney | Melbourne | Brisbane | Adelaide | Perth | Hobart | Darwin

Other Formats:

Comma delimited format used in spreadsheet applications
http://www.bom.gov.au/fwo/IDV60901/IDV60901.94872.axf

JavaScript Object Notation format (JSON) in row-major order
http://www.bom.gov.au/fwo/IDV60901/IDV60901.94872.json